sensor_id;sensor_type;location;lat;lon;timestamp;P1;durP1;ratioP1;P2;durP2;ratioP2
17725;SDS011;8983;53.156;17.960;2024-02-26T00:02:24;55.70;;;22.00;;
17725;SDS011;8983;53.156;17.960;2024-02-26T00:04:52;75.13;;;26.00;;
17725;SDS011;8983;53.156;17.960;2024-02-26T00:07:20;71.87;;;25.33;;
17725;SDS011;8983;53.156;17.960;2024-02-26T00:09:48;90.93;;;28.90;;
17725;SDS011;8983;53.156;17.960;2024-02-26T00:12:16;75.53;;;27.83;;
17725;SDS011;8983;53.156;17.960;2024-02-26T00:14:46;77.67;;;24.27;;
17725;SDS011;8983;53.156;17.960;2024-02-26T00:17:16;55.23;;;24.37;;
17725;SDS011;8983;53.156;17.960;2024-02-26T00:19:44;55.73;;;22.90;;
17725;SDS011;8983;53.156;17.960;2024-02-26T00:22:12;61.63;;;24.07;;
17725;SDS011;8983;53.156;17.960;2024-02-26T00:24:40;58.57;;;21.77;;
17725;SDS011;8983;53.156;17.960;2024-02-26T00:27:09;55.70;;;23.23;;
17725;SDS011;8983;53.156;17.960;2024-02-26T00:29:37;57.70;;;22.00;;
17725;SDS011;8983;53.156;17.960;2024-02-26T00:32:06;70.37;;;23.03;;
17725;SDS011;8983;53.156;17.960;2024-02-26T00:34:35;69.70;;;24.23;;
17725;SDS011;8983;53.156;17.960;2024-02-26T00:37:03;47.67;;;21.20;;
17725;SDS011;8983;53.156;17.960;2024-02-26T00:39:32;51.40;;;22.00;;
17725;SDS011;8983;53.156;17.960;2024-02-26T00:42:00;58.27;;;24.33;;
17725;SDS011;8983;53.156;17.960;2024-02-26T00:44:29;59.83;;;25.03;;
17725;SDS011;8983;53.156;17.960;2024-02-26T00:46:58;56.33;;;24.30;;
17725;SDS011;8983;53.156;17.960;2024-02-26T00:49:27;57.90;;;22.00;;
17725;SDS011;8983;53.156;17.960;2024-02-26T00:51:56;51.23;;;21.97;;
17725;SDS011;8983;53.156;17.960;2024-02-26T00:54:24;45.57;;;20.03;;
17725;SDS011;8983;53.156;17.960;2024-02-26T00:56:52;39.67;;;18.73;;
17725;SDS011;8983;53.156;17.960;2024-02-26T00:59:20;33.13;;;17.57;;
17725;SDS011;8983;53.156;17.960;2024-02-26T01:01:48;40.83;;;19.87;;
17725;SDS011;8983;53.156;17.960;2024-02-26T01:04:17;38.13;;;18.80;;
17725;SDS011;8983;53.156;17.960;2024-02-26T01:06:46;46.67;;;19.70;;
17725;SDS011;8983;53.156;17.960;2024-02-26T01:09:14;44.23;;;21.20;;
17725;SDS011;8983;53.156;17.960;2024-02-26T01:11:44;40.37;;;20.20;;
17725;SDS011;8983;53.156;17.960;2024-02-26T01:14:13;39.87;;;18.37;;
17725;SDS011;8983;53.156;17.960;2024-02-26T01:16:41;35.77;;;18.23;;
17725;SDS011;8983;53.156;17.960;2024-02-26T01:19:09;31.97;;;16.67;;
17725;SDS011;8983;53.156;17.960;2024-02-26T01:21:38;32.13;;;15.87;;
17725;SDS011;8983;53.156;17.960;2024-02-26T01:24:07;31.00;;;17.37;;
17725;SDS011;8983;53.156;17.960;2024-02-26T01:26:35;33.13;;;17.13;;
17725;SDS011;8983;53.156;17.960;2024-02-26T01:29:04;36.13;;;17.47;;
17725;SDS011;8983;53.156;17.960;2024-02-26T01:31:32;31.33;;;16.00;;
17725;SDS011;8983;53.156;17.960;2024-02-26T01:34:00;33.93;;;16.83;;
17725;SDS011;8983;53.156;17.960;2024-02-26T01:36:29;35.00;;;16.50;;
17725;SDS011;8983;53.156;17.960;2024-02-26T01:38:57;27.03;;;14.97;;
17725;SDS011;8983;53.156;17.960;2024-02-26T01:41:27;25.03;;;14.83;;
17725;SDS011;8983;53.156;17.960;2024-02-26T01:43:55;28.10;;;15.67;;
17725;SDS011;8983;53.156;17.960;2024-02-26T01:46:24;26.63;;;14.87;;
17725;SDS011;8983;53.156;17.960;2024-02-26T01:48:52;33.07;;;16.10;;
17725;SDS011;8983;53.156;17.960;2024-02-26T01:51:21;35.43;;;16.67;;
17725;SDS011;8983;53.156;17.960;2024-02-26T01:53:50;28.90;;;16.70;;
17725;SDS011;8983;53.156;17.960;2024-02-26T01:56:19;31.63;;;15.73;;
17725;SDS011;8983;53.156;17.960;2024-02-26T01:58:49;31.70;;;16.33;;
17725;SDS011;8983;53.156;17.960;2024-02-26T02:01:18;37.07;;;17.80;;
17725;SDS011;8983;53.156;17.960;2024-02-26T02:03:49;30.40;;;16.57;;
17725;SDS011;8983;53.156;17.960;2024-02-26T02:06:17;30.67;;;16.17;;
17725;SDS011;8983;53.156;17.960;2024-02-26T02:08:46;33.60;;;16.37;;
17725;SDS011;8983;53.156;17.960;2024-02-26T02:11:14;34.33;;;17.37;;
17725;SDS011;8983;53.156;17.960;2024-02-26T02:13:43;37.13;;;17.07;;
17725;SDS011;8983;53.156;17.960;2024-02-26T02:16:12;39.07;;;18.00;;
17725;SDS011;8983;53.156;17.960;2024-02-26T02:18:40;32.70;;;17.13;;
17725;SDS011;8983;53.156;17.960;2024-02-26T02:21:10;35.33;;;16.93;;
17725;SDS011;8983;53.156;17.960;2024-02-26T02:23:38;31.63;;;17.17;;
17725;SDS011;8983;53.156;17.960;2024-02-26T02:26:07;35.47;;;16.33;;
17725;SDS011;8983;53.156;17.960;2024-02-26T02:28:35;30.67;;;16.47;;
17725;SDS011;8983;53.156;17.960;2024-02-26T02:31:03;46.37;;;18.63;;
17725;SDS011;8983;53.156;17.960;2024-02-26T02:33:31;42.37;;;17.03;;
17725;SDS011;8983;53.156;17.960;2024-02-26T02:36:00;35.83;;;18.37;;
17725;SDS011;8983;53.156;17.960;2024-02-26T02:38:30;35.53;;;16.50;;
17725;SDS011;8983;53.156;17.960;2024-02-26T02:41:00;52.23;;;18.07;;
17725;SDS011;8983;53.156;17.960;2024-02-26T02:43:28;44.50;;;17.83;;
17725;SDS011;8983;53.156;17.960;2024-02-26T02:45:56;45.60;;;18.63;;
17725;SDS011;8983;53.156;17.960;2024-02-26T02:48:24;42.17;;;18.43;;
17725;SDS011;8983;53.156;17.960;2024-02-26T02:50:53;41.23;;;18.10;;
17725;SDS011;8983;53.156;17.960;2024-02-26T02:53:21;57.13;;;20.00;;
17725;SDS011;8983;53.156;17.960;2024-02-26T02:55:51;65.93;;;20.40;;
17725;SDS011;8983;53.156;17.960;2024-02-26T02:58:19;43.00;;;18.40;;
17725;SDS011;8983;53.156;17.960;2024-02-26T03:00:47;43.87;;;19.23;;
17725;SDS011;8983;53.156;17.960;2024-02-26T03:03:15;56.37;;;21.13;;
17725;SDS011;8983;53.156;17.960;2024-02-26T03:05:44;77.93;;;20.97;;
17725;SDS011;8983;53.156;17.960;2024-02-26T03:08:12;64.90;;;21.30;;
17725;SDS011;8983;53.156;17.960;2024-02-26T03:10:40;171.03;;;24.67;;
17725;SDS011;8983;53.156;17.960;2024-02-26T03:13:11;83.73;;;21.93;;
17725;SDS011;8983;53.156;17.960;2024-02-26T03:15:39;153.33;;;25.73;;
17725;SDS011;8983;53.156;17.960;2024-02-26T03:18:08;239.43;;;27.83;;
17725;SDS011;8983;53.156;17.960;2024-02-26T03:20:36;139.53;;;26.20;;
17725;SDS011;8983;53.156;17.960;2024-02-26T03:23:04;213.07;;;28.23;;
17725;SDS011;8983;53.156;17.960;2024-02-26T03:25:32;217.77;;;28.20;;
17725;SDS011;8983;53.156;17.960;2024-02-26T03:28:00;141.23;;;24.67;;
17725;SDS011;8983;53.156;17.960;2024-02-26T03:30:30;219.07;;;29.27;;
17725;SDS011;8983;53.156;17.960;2024-02-26T03:32:58;398.23;;;35.77;;
17725;SDS011;8983;53.156;17.960;2024-02-26T03:35:26;180.17;;;28.93;;
17725;SDS011;8983;53.156;17.960;2024-02-26T03:37:54;258.93;;;32.43;;
17725;SDS011;8983;53.156;17.960;2024-02-26T03:40:23;558.53;;;48.50;;
17725;SDS011;8983;53.156;17.960;2024-02-26T03:42:51;412.50;;;38.67;;
17725;SDS011;8983;53.156;17.960;2024-02-26T03:45:20;249.53;;;29.80;;
17725;SDS011;8983;53.156;17.960;2024-02-26T03:47:50;657.27;;;51.77;;
17725;SDS011;8983;53.156;17.960;2024-02-26T03:50:18;226.53;;;30.83;;
17725;SDS011;8983;53.156;17.960;2024-02-26T03:52:46;478.63;;;42.43;;
17725;SDS011;8983;53.156;17.960;2024-02-26T03:55:14;72.33;;;21.77;;
17725;SDS011;8983;53.156;17.960;2024-02-26T03:57:44;156.60;;;26.70;;
17725;SDS011;8983;53.156;17.960;2024-02-26T04:00:13;281.37;;;33.23;;
17725;SDS011;8983;53.156;17.960;2024-02-26T04:02:41;305.80;;;34.30;;
17725;SDS011;8983;53.156;17.960;2024-02-26T04:05:11;218.67;;;28.83;;
17725;SDS011;8983;53.156;17.960;2024-02-26T04:07:40;180.30;;;28.53;;
17725;SDS011;8983;53.156;17.960;2024-02-26T04:10:09;282.90;;;30.07;;
17725;SDS011;8983;53.156;17.960;2024-02-26T04:12:38;191.77;;;28.07;;
17725;SDS011;8983;53.156;17.960;2024-02-26T04:15:07;123.40;;;24.27;;
17725;SDS011;8983;53.156;17.960;2024-02-26T04:17:36;71.73;;;20.93;;
17725;SDS011;8983;53.156;17.960;2024-02-26T04:20:06;40.73;;;20.00;;
17725;SDS011;8983;53.156;17.960;2024-02-26T04:22:37;58.47;;;20.13;;
17725;SDS011;8983;53.156;17.960;2024-02-26T04:25:05;52.27;;;18.60;;
17725;SDS011;8983;53.156;17.960;2024-02-26T04:27:34;61.97;;;19.90;;
17725;SDS011;8983;53.156;17.960;2024-02-26T04:30:02;53.87;;;20.20;;
17725;SDS011;8983;53.156;17.960;2024-02-26T04:32:31;155.90;;;23.87;;
17725;SDS011;8983;53.156;17.960;2024-02-26T04:35:00;179.00;;;25.20;;
17725;SDS011;8983;53.156;17.960;2024-02-26T04:37:29;250.10;;;27.77;;
17725;SDS011;8983;53.156;17.960;2024-02-26T04:40:00;133.57;;;22.73;;
17725;SDS011;8983;53.156;17.960;2024-02-26T04:42:29;214.43;;;25.27;;
17725;SDS011;8983;53.156;17.960;2024-02-26T04:44:57;195.27;;;25.97;;
17725;SDS011;8983;53.156;17.960;2024-02-26T04:47:25;145.23;;;23.40;;
17725;SDS011;8983;53.156;17.960;2024-02-26T04:49:54;71.30;;;19.33;;
17725;SDS011;8983;53.156;17.960;2024-02-26T04:52:22;283.83;;;31.13;;
17725;SDS011;8983;53.156;17.960;2024-02-26T04:54:50;165.97;;;24.93;;
17725;SDS011;8983;53.156;17.960;2024-02-26T04:57:20;346.67;;;34.77;;
17725;SDS011;8983;53.156;17.960;2024-02-26T04:59:49;147.27;;;22.40;;
17725;SDS011;8983;53.156;17.960;2024-02-26T05:02:17;95.33;;;19.77;;
17725;SDS011;8983;53.156;17.960;2024-02-26T05:04:45;64.50;;;17.77;;
17725;SDS011;8983;53.156;17.960;2024-02-26T05:07:14;98.53;;;19.30;;
17725;SDS011;8983;53.156;17.960;2024-02-26T05:09:44;222.63;;;26.17;;
17725;SDS011;8983;53.156;17.960;2024-02-26T05:12:12;68.50;;;19.33;;
17725;SDS011;8983;53.156;17.960;2024-02-26T05:14:42;59.77;;;19.13;;
17725;SDS011;8983;53.156;17.960;2024-02-26T05:17:10;75.63;;;19.73;;
17725;SDS011;8983;53.156;17.960;2024-02-26T05:19:38;89.63;;;19.87;;
17725;SDS011;8983;53.156;17.960;2024-02-26T05:22:06;42.07;;;18.50;;
17725;SDS011;8983;53.156;17.960;2024-02-26T05:24:37;56.80;;;16.53;;
17725;SDS011;8983;53.156;17.960;2024-02-26T05:27:06;111.60;;;21.53;;
17725;SDS011;8983;53.156;17.960;2024-02-26T05:29:35;179.80;;;24.43;;
17725;SDS011;8983;53.156;17.960;2024-02-26T05:32:05;290.90;;;29.23;;
17725;SDS011;8983;53.156;17.960;2024-02-26T05:34:33;72.73;;;19.80;;
17725;SDS011;8983;53.156;17.960;2024-02-26T05:37:02;256.20;;;29.60;;
17725;SDS011;8983;53.156;17.960;2024-02-26T05:39:30;307.23;;;32.03;;
17725;SDS011;8983;53.156;17.960;2024-02-26T05:41:58;182.93;;;26.50;;
17725;SDS011;8983;53.156;17.960;2024-02-26T05:44:26;56.50;;;22.50;;
17725;SDS011;8983;53.156;17.960;2024-02-26T05:46:55;128.50;;;24.70;;
17725;SDS011;8983;53.156;17.960;2024-02-26T05:49:24;57.70;;;20.63;;
17725;SDS011;8983;53.156;17.960;2024-02-26T05:51:53;89.80;;;22.40;;
17725;SDS011;8983;53.156;17.960;2024-02-26T05:54:21;86.00;;;22.03;;
17725;SDS011;8983;53.156;17.960;2024-02-26T05:56:49;70.87;;;20.60;;
17725;SDS011;8983;53.156;17.960;2024-02-26T05:59:18;65.07;;;22.60;;
17725;SDS011;8983;53.156;17.960;2024-02-26T06:01:46;69.50;;;21.50;;
17725;SDS011;8983;53.156;17.960;2024-02-26T06:04:14;65.63;;;20.40;;
17725;SDS011;8983;53.156;17.960;2024-02-26T06:06:45;89.17;;;23.37;;
17725;SDS011;8983;53.156;17.960;2024-02-26T06:09:13;51.10;;;21.37;;
17725;SDS011;8983;53.156;17.960;2024-02-26T06:11:41;60.70;;;20.97;;
17725;SDS011;8983;53.156;17.960;2024-02-26T06:14:09;72.67;;;22.43;;
17725;SDS011;8983;53.156;17.960;2024-02-26T06:16:40;49.67;;;20.03;;
17725;SDS011;8983;53.156;17.960;2024-02-26T06:19:08;56.00;;;19.93;;
17725;SDS011;8983;53.156;17.960;2024-02-26T06:21:39;59.07;;;20.70;;
17725;SDS011;8983;53.156;17.960;2024-02-26T06:24:08;55.30;;;19.97;;
17725;SDS011;8983;53.156;17.960;2024-02-26T06:26:36;43.20;;;19.73;;
17725;SDS011;8983;53.156;17.960;2024-02-26T06:29:05;44.50;;;20.10;;
17725;SDS011;8983;53.156;17.960;2024-02-26T06:31:33;46.73;;;18.70;;
17725;SDS011;8983;53.156;17.960;2024-02-26T06:34:01;43.93;;;19.97;;
17725;SDS011;8983;53.156;17.960;2024-02-26T06:36:30;40.53;;;18.87;;
17725;SDS011;8983;53.156;17.960;2024-02-26T06:38:59;37.90;;;19.93;;
17725;SDS011;8983;53.156;17.960;2024-02-26T06:41:29;41.07;;;19.03;;
17725;SDS011;8983;53.156;17.960;2024-02-26T06:43:57;39.93;;;19.50;;
17725;SDS011;8983;53.156;17.960;2024-02-26T06:46:25;45.60;;;20.70;;
17725;SDS011;8983;53.156;17.960;2024-02-26T06:48:57;39.17;;;20.43;;
17725;SDS011;8983;53.156;17.960;2024-02-26T06:51:25;41.37;;;19.00;;
17725;SDS011;8983;53.156;17.960;2024-02-26T06:53:53;35.03;;;18.77;;
17725;SDS011;8983;53.156;17.960;2024-02-26T06:56:21;51.23;;;19.77;;
17725;SDS011;8983;53.156;17.960;2024-02-26T06:58:51;39.80;;;18.30;;
17725;SDS011;8983;53.156;17.960;2024-02-26T07:01:19;33.97;;;18.17;;
17725;SDS011;8983;53.156;17.960;2024-02-26T07:03:47;37.17;;;18.23;;
17725;SDS011;8983;53.156;17.960;2024-02-26T07:06:16;38.63;;;19.53;;
17725;SDS011;8983;53.156;17.960;2024-02-26T07:08:44;37.37;;;20.23;;
17725;SDS011;8983;53.156;17.960;2024-02-26T07:11:12;39.93;;;19.43;;
17725;SDS011;8983;53.156;17.960;2024-02-26T07:13:40;40.80;;;20.23;;
17725;SDS011;8983;53.156;17.960;2024-02-26T07:16:10;34.63;;;18.87;;
17725;SDS011;8983;53.156;17.960;2024-02-26T07:18:38;56.83;;;20.53;;
17725;SDS011;8983;53.156;17.960;2024-02-26T07:21:07;50.10;;;18.73;;
17725;SDS011;8983;53.156;17.960;2024-02-26T07:23:35;53.07;;;19.93;;
17725;SDS011;8983;53.156;17.960;2024-02-26T07:26:03;58.47;;;20.23;;
17725;SDS011;8983;53.156;17.960;2024-02-26T07:28:32;42.57;;;18.80;;
17725;SDS011;8983;53.156;17.960;2024-02-26T07:31:00;37.37;;;18.53;;
17725;SDS011;8983;53.156;17.960;2024-02-26T07:33:31;60.43;;;19.33;;
17725;SDS011;8983;53.156;17.960;2024-02-26T07:36:00;52.53;;;18.47;;
17725;SDS011;8983;53.156;17.960;2024-02-26T07:38:28;67.23;;;21.50;;
17725;SDS011;8983;53.156;17.960;2024-02-26T07:41:08;62.43;;;19.17;;
17725;SDS011;8983;53.156;17.960;2024-02-26T07:43:37;64.23;;;19.07;;
17725;SDS011;8983;53.156;17.960;2024-02-26T07:46:05;48.93;;;20.40;;
17725;SDS011;8983;53.156;17.960;2024-02-26T07:48:35;34.60;;;18.00;;
17725;SDS011;8983;53.156;17.960;2024-02-26T07:51:03;45.47;;;19.80;;
17725;SDS011;8983;53.156;17.960;2024-02-26T07:53:32;50.43;;;18.80;;
17725;SDS011;8983;53.156;17.960;2024-02-26T07:56:00;41.03;;;18.63;;
17725;SDS011;8983;53.156;17.960;2024-02-26T07:58:29;42.87;;;19.30;;
17725;SDS011;8983;53.156;17.960;2024-02-26T08:00:59;42.07;;;19.47;;
17725;SDS011;8983;53.156;17.960;2024-02-26T08:03:28;27.87;;;16.57;;
17725;SDS011;8983;53.156;17.960;2024-02-26T08:05:58;49.33;;;19.60;;
17725;SDS011;8983;53.156;17.960;2024-02-26T08:08:26;39.23;;;19.97;;
17725;SDS011;8983;53.156;17.960;2024-02-26T08:10:54;34.87;;;18.27;;
17725;SDS011;8983;53.156;17.960;2024-02-26T08:13:22;34.67;;;18.10;;
17725;SDS011;8983;53.156;17.960;2024-02-26T08:15:51;30.73;;;18.67;;
17725;SDS011;8983;53.156;17.960;2024-02-26T08:18:19;32.30;;;18.87;;
17725;SDS011;8983;53.156;17.960;2024-02-26T08:20:47;32.77;;;18.80;;
17725;SDS011;8983;53.156;17.960;2024-02-26T08:23:17;33.53;;;18.47;;
17725;SDS011;8983;53.156;17.960;2024-02-26T08:25:46;33.77;;;19.23;;
17725;SDS011;8983;53.156;17.960;2024-02-26T08:28:14;36.43;;;18.90;;
17725;SDS011;8983;53.156;17.960;2024-02-26T08:30:44;40.20;;;19.83;;
17725;SDS011;8983;53.156;17.960;2024-02-26T08:33:12;46.33;;;22.63;;
17725;SDS011;8983;53.156;17.960;2024-02-26T08:35:41;60.43;;;26.77;;
17725;SDS011;8983;53.156;17.960;2024-02-26T08:38:09;50.20;;;24.27;;
17725;SDS011;8983;53.156;17.960;2024-02-26T08:40:39;44.43;;;23.73;;
17725;SDS011;8983;53.156;17.960;2024-02-26T08:43:07;37.33;;;19.47;;
17725;SDS011;8983;53.156;17.960;2024-02-26T08:45:36;31.93;;;19.00;;
17725;SDS011;8983;53.156;17.960;2024-02-26T08:48:05;43.13;;;19.77;;
17725;SDS011;8983;53.156;17.960;2024-02-26T08:50:34;33.50;;;19.07;;
17725;SDS011;8983;53.156;17.960;2024-02-26T08:53:03;32.33;;;19.63;;
17725;SDS011;8983;53.156;17.960;2024-02-26T08:55:33;38.20;;;20.90;;
17725;SDS011;8983;53.156;17.960;2024-02-26T08:58:03;35.83;;;20.23;;
17725;SDS011;8983;53.156;17.960;2024-02-26T09:00:31;37.57;;;19.97;;
17725;SDS011;8983;53.156;17.960;2024-02-26T09:03:00;35.57;;;20.07;;
17725;SDS011;8983;53.156;17.960;2024-02-26T09:05:31;31.03;;;18.63;;
17725;SDS011;8983;53.156;17.960;2024-02-26T09:07:59;36.47;;;21.10;;
17725;SDS011;8983;53.156;17.960;2024-02-26T09:10:27;40.17;;;22.20;;
17725;SDS011;8983;53.156;17.960;2024-02-26T09:12:55;40.00;;;21.70;;
17725;SDS011;8983;53.156;17.960;2024-02-26T09:15:25;38.90;;;22.63;;
17725;SDS011;8983;53.156;17.960;2024-02-26T09:17:53;35.87;;;22.07;;
17725;SDS011;8983;53.156;17.960;2024-02-26T09:20:22;39.03;;;21.93;;
17725;SDS011;8983;53.156;17.960;2024-02-26T09:22:50;35.50;;;22.10;;
17725;SDS011;8983;53.156;17.960;2024-02-26T09:25:20;36.80;;;23.03;;
17725;SDS011;8983;53.156;17.960;2024-02-26T09:27:48;36.60;;;21.33;;
17725;SDS011;8983;53.156;17.960;2024-02-26T09:30:17;37.30;;;20.10;;
17725;SDS011;8983;53.156;17.960;2024-02-26T09:32:47;33.00;;;20.47;;
17725;SDS011;8983;53.156;17.960;2024-02-26T09:35:15;38.00;;;20.73;;
17725;SDS011;8983;53.156;17.960;2024-02-26T09:37:44;34.67;;;20.60;;
17725;SDS011;8983;53.156;17.960;2024-02-26T09:40:12;32.87;;;18.83;;
17725;SDS011;8983;53.156;17.960;2024-02-26T09:42:43;32.40;;;20.57;;
17725;SDS011;8983;53.156;17.960;2024-02-26T09:45:14;31.50;;;19.30;;
17725;SDS011;8983;53.156;17.960;2024-02-26T09:47:48;40.97;;;20.47;;
17725;SDS011;8983;53.156;17.960;2024-02-26T09:50:17;26.67;;;18.33;;
17725;SDS011;8983;53.156;17.960;2024-02-26T09:52:49;26.37;;;17.13;;
17725;SDS011;8983;53.156;17.960;2024-02-26T09:55:19;30.83;;;19.17;;
17725;SDS011;8983;53.156;17.960;2024-02-26T09:57:47;28.97;;;18.50;;
17725;SDS011;8983;53.156;17.960;2024-02-26T10:00:19;31.27;;;17.63;;
17725;SDS011;8983;53.156;17.960;2024-02-26T10:02:50;32.20;;;15.93;;
17725;SDS011;8983;53.156;17.960;2024-02-26T10:05:19;29.37;;;17.07;;
17725;SDS011;8983;53.156;17.960;2024-02-26T10:07:48;22.93;;;15.67;;
17725;SDS011;8983;53.156;17.960;2024-02-26T10:10:17;25.77;;;16.77;;
17725;SDS011;8983;53.156;17.960;2024-02-26T10:12:45;23.03;;;14.50;;
17725;SDS011;8983;53.156;17.960;2024-02-26T10:15:14;28.37;;;14.90;;
17725;SDS011;8983;53.156;17.960;2024-02-26T10:17:42;20.73;;;13.07;;
17725;SDS011;8983;53.156;17.960;2024-02-26T10:20:13;19.83;;;13.07;;
17725;SDS011;8983;53.156;17.960;2024-02-26T10:22:44;19.30;;;11.27;;
17725;SDS011;8983;53.156;17.960;2024-02-26T10:25:14;19.50;;;9.80;;
17725;SDS011;8983;53.156;17.960;2024-02-26T10:27:42;14.10;;;9.67;;
17725;SDS011;8983;53.156;17.960;2024-02-26T10:30:16;13.20;;;8.80;;
17725;SDS011;8983;53.156;17.960;2024-02-26T10:32:46;13.77;;;8.40;;
17725;SDS011;8983;53.156;17.960;2024-02-26T10:35:16;10.83;;;7.23;;
17725;SDS011;8983;53.156;17.960;2024-02-26T10:37:47;10.60;;;6.70;;
17725;SDS011;8983;53.156;17.960;2024-02-26T10:40:16;12.13;;;6.80;;
17725;SDS011;8983;53.156;17.960;2024-02-26T10:42:44;10.43;;;6.77;;
17725;SDS011;8983;53.156;17.960;2024-02-26T10:45:13;10.27;;;6.27;;
17725;SDS011;8983;53.156;17.960;2024-02-26T10:47:41;9.50;;;6.60;;
17725;SDS011;8983;53.156;17.960;2024-02-26T10:50:10;7.80;;;5.87;;
17725;SDS011;8983;53.156;17.960;2024-02-26T10:52:44;10.30;;;6.53;;
17725;SDS011;8983;53.156;17.960;2024-02-26T10:55:13;8.57;;;6.23;;
17725;SDS011;8983;53.156;17.960;2024-02-26T10:57:45;9.40;;;6.40;;
17725;SDS011;8983;53.156;17.960;2024-02-26T11:00:15;9.70;;;6.67;;
17725;SDS011;8983;53.156;17.960;2024-02-26T11:02:44;12.40;;;6.77;;
17725;SDS011;8983;53.156;17.960;2024-02-26T11:05:13;6.90;;;6.10;;
17725;SDS011;8983;53.156;17.960;2024-02-26T11:07:42;8.63;;;5.97;;
17725;SDS011;8983;53.156;17.960;2024-02-26T11:10:13;9.73;;;5.77;;
17725;SDS011;8983;53.156;17.960;2024-02-26T11:12:44;10.73;;;6.47;;
17725;SDS011;8983;53.156;17.960;2024-02-26T11:15:14;11.33;;;6.70;;
17725;SDS011;8983;53.156;17.960;2024-02-26T11:17:44;13.67;;;7.27;;
17725;SDS011;8983;53.156;17.960;2024-02-26T11:20:15;14.70;;;7.53;;
17725;SDS011;8983;53.156;17.960;2024-02-26T11:22:46;14.00;;;7.97;;
17725;SDS011;8983;53.156;17.960;2024-02-26T11:25:14;17.57;;;9.27;;
17725;SDS011;8983;53.156;17.960;2024-02-26T11:27:44;13.70;;;8.07;;
17725;SDS011;8983;53.156;17.960;2024-02-26T11:30:15;13.17;;;7.80;;
17725;SDS011;8983;53.156;17.960;2024-02-26T11:32:46;17.07;;;9.10;;
17725;SDS011;8983;53.156;17.960;2024-02-26T11:35:15;13.10;;;9.23;;
17725;SDS011;8983;53.156;17.960;2024-02-26T11:37:53;17.73;;;9.40;;
17725;SDS011;8983;53.156;17.960;2024-02-26T11:40:23;16.37;;;10.10;;
17725;SDS011;8983;53.156;17.960;2024-02-26T11:42:52;16.17;;;10.50;;
17725;SDS011;8983;53.156;17.960;2024-02-26T11:48:23;14.63;;;9.20;;
17725;SDS011;8983;53.156;17.960;2024-02-26T11:50:53;16.60;;;10.00;;
17725;SDS011;8983;53.156;17.960;2024-02-26T11:53:24;18.30;;;9.80;;
17725;SDS011;8983;53.156;17.960;2024-02-26T11:56:13;15.57;;;9.87;;
17725;SDS011;8983;53.156;17.960;2024-02-26T11:58:59;15.73;;;10.33;;
17725;SDS011;8983;53.156;17.960;2024-02-26T12:01:36;14.87;;;9.77;;
17725;SDS011;8983;53.156;17.960;2024-02-26T12:04:04;15.23;;;9.70;;
17725;SDS011;8983;53.156;17.960;2024-02-26T12:06:39;14.73;;;10.17;;
17725;SDS011;8983;53.156;17.960;2024-02-26T12:09:11;18.30;;;10.03;;
17725;SDS011;8983;53.156;17.960;2024-02-26T12:11:40;13.40;;;8.90;;
17725;SDS011;8983;53.156;17.960;2024-02-26T12:14:10;14.97;;;9.93;;
17725;SDS011;8983;53.156;17.960;2024-02-26T12:16:38;16.67;;;10.03;;
17725;SDS011;8983;53.156;17.960;2024-02-26T12:19:09;20.90;;;10.40;;
17725;SDS011;8983;53.156;17.960;2024-02-26T12:21:37;15.53;;;9.60;;
17725;SDS011;8983;53.156;17.960;2024-02-26T12:24:11;15.33;;;10.33;;
17725;SDS011;8983;53.156;17.960;2024-02-26T12:26:40;16.77;;;9.87;;
17725;SDS011;8983;53.156;17.960;2024-02-26T12:29:08;18.57;;;10.03;;
17725;SDS011;8983;53.156;17.960;2024-02-26T12:31:37;17.03;;;10.43;;
17725;SDS011;8983;53.156;17.960;2024-02-26T12:34:07;16.13;;;10.80;;
17725;SDS011;8983;53.156;17.960;2024-02-26T12:36:37;17.77;;;10.23;;
17725;SDS011;8983;53.156;17.960;2024-02-26T12:39:07;14.97;;;10.33;;
17725;SDS011;8983;53.156;17.960;2024-02-26T12:41:38;15.37;;;10.33;;
17725;SDS011;8983;53.156;17.960;2024-02-26T12:44:07;17.00;;;10.70;;
17725;SDS011;8983;53.156;17.960;2024-02-26T12:46:36;13.90;;;9.60;;
17725;SDS011;8983;53.156;17.960;2024-02-26T12:49:04;15.27;;;9.73;;
17725;SDS011;8983;53.156;17.960;2024-02-26T12:51:32;17.53;;;9.93;;
17725;SDS011;8983;53.156;17.960;2024-02-26T12:54:01;16.77;;;9.03;;
17725;SDS011;8983;53.156;17.960;2024-02-26T12:56:29;13.10;;;8.93;;
17725;SDS011;8983;53.156;17.960;2024-02-26T12:59:00;14.70;;;8.43;;
17725;SDS011;8983;53.156;17.960;2024-02-26T13:01:29;17.93;;;10.07;;
17725;SDS011;8983;53.156;17.960;2024-02-26T13:03:58;17.63;;;11.30;;
17725;SDS011;8983;53.156;17.960;2024-02-26T13:06:27;15.63;;;10.50;;
17725;SDS011;8983;53.156;17.960;2024-02-26T13:08:56;15.97;;;10.73;;
17725;SDS011;8983;53.156;17.960;2024-02-26T13:11:26;16.20;;;9.63;;
17725;SDS011;8983;53.156;17.960;2024-02-26T13:13:55;13.37;;;9.20;;
17725;SDS011;8983;53.156;17.960;2024-02-26T13:16:24;14.73;;;9.30;;
17725;SDS011;8983;53.156;17.960;2024-02-26T13:18:54;15.53;;;9.73;;
17725;SDS011;8983;53.156;17.960;2024-02-26T13:21:22;14.70;;;8.27;;
17725;SDS011;8983;53.156;17.960;2024-02-26T13:23:52;14.03;;;8.80;;
17725;SDS011;8983;53.156;17.960;2024-02-26T13:26:22;14.87;;;9.37;;
17725;SDS011;8983;53.156;17.960;2024-02-26T13:28:59;16.77;;;10.07;;
17725;SDS011;8983;53.156;17.960;2024-02-26T13:31:29;16.23;;;10.03;;
17725;SDS011;8983;53.156;17.960;2024-02-26T13:33:57;17.30;;;10.00;;
17725;SDS011;8983;53.156;17.960;2024-02-26T13:36:25;15.57;;;10.60;;
17725;SDS011;8983;53.156;17.960;2024-02-26T13:38:54;18.50;;;10.30;;
17725;SDS011;8983;53.156;17.960;2024-02-26T13:41:23;18.50;;;10.67;;
17725;SDS011;8983;53.156;17.960;2024-02-26T13:43:51;18.57;;;11.53;;
17725;SDS011;8983;53.156;17.960;2024-02-26T13:46:20;19.30;;;10.80;;
17725;SDS011;8983;53.156;17.960;2024-02-26T13:48:49;18.50;;;10.17;;
17725;SDS011;8983;53.156;17.960;2024-02-26T13:51:18;16.87;;;9.33;;
17725;SDS011;8983;53.156;17.960;2024-02-26T13:53:46;17.90;;;9.67;;
17725;SDS011;8983;53.156;17.960;2024-02-26T13:56:14;13.63;;;9.20;;
17725;SDS011;8983;53.156;17.960;2024-02-26T13:58:42;15.13;;;8.63;;
17725;SDS011;8983;53.156;17.960;2024-02-26T14:01:10;20.17;;;8.93;;
17725;SDS011;8983;53.156;17.960;2024-02-26T14:03:39;15.00;;;9.70;;
17725;SDS011;8983;53.156;17.960;2024-02-26T14:06:08;13.23;;;9.23;;
17725;SDS011;8983;53.156;17.960;2024-02-26T14:08:37;13.63;;;9.20;;
17725;SDS011;8983;53.156;17.960;2024-02-26T14:11:05;15.27;;;9.40;;
17725;SDS011;8983;53.156;17.960;2024-02-26T14:13:33;14.90;;;9.00;;
17725;SDS011;8983;53.156;17.960;2024-02-26T14:16:05;19.10;;;8.93;;
17725;SDS011;8983;53.156;17.960;2024-02-26T14:18:34;14.07;;;9.50;;
17725;SDS011;8983;53.156;17.960;2024-02-26T14:21:02;20.53;;;10.53;;
17725;SDS011;8983;53.156;17.960;2024-02-26T14:23:32;14.90;;;10.53;;
17725;SDS011;8983;53.156;17.960;2024-02-26T14:26:01;15.63;;;9.93;;
17725;SDS011;8983;53.156;17.960;2024-02-26T14:28:30;18.37;;;10.07;;
17725;SDS011;8983;53.156;17.960;2024-02-26T14:31:02;14.40;;;9.60;;
17725;SDS011;8983;53.156;17.960;2024-02-26T14:33:32;16.20;;;9.67;;
17725;SDS011;8983;53.156;17.960;2024-02-26T14:36:01;14.57;;;10.10;;
17725;SDS011;8983;53.156;17.960;2024-02-26T14:38:29;17.87;;;10.17;;